sensor_id;sensor_type;location;lat;lon;timestamp;pressure;altitude;pressure_sealevel;temperature;humidity
61357;BME280;47227;46.752;23.576;2022-10-22T00:02:19;96629.92;;;7.76;64.15
61357;BME280;47227;46.752;23.576;2022-10-22T00:04:47;96632.77;;;7.70;64.22
61357;BME280;47227;46.752;23.576;2022-10-22T00:07:16;96625.60;;;7.65;64.09
61357;BME280;47227;46.752;23.576;2022-10-22T00:09:43;96624.01;;;7.61;64.21
61357;BME280;47227;46.752;23.576;2022-10-22T00:12:10;96622.67;;;7.57;64.01
61357;BME280;47227;46.752;23.576;2022-10-22T00:14:41;96625.41;;;7.54;64.00
61357;BME280;47227;46.752;23.576;2022-10-22T00:17:08;96622.38;;;7.52;63.91
61357;BME280;47227;46.752;23.576;2022-10-22T00:19:38;96618.19;;;7.50;63.84
61357;BME280;47227;46.752;23.576;2022-10-22T00:22:06;96618.23;;;7.48;63.90
61357;BME280;47227;46.752;23.576;2022-10-22T00:24:35;96620.02;;;7.47;63.95
61357;BME280;47227;46.752;23.576;2022-10-22T00:27:03;96621.90;;;7.45;63.87
61357;BME280;47227;46.752;23.576;2022-10-22T00:29:30;96622.68;;;7.43;63.87
61357;BME280;47227;46.752;23.576;2022-10-22T00:31:57;96621.67;;;7.40;64.09
61357;BME280;47227;46.752;23.576;2022-10-22T00:34:24;96609.21;;;7.37;64.51
61357;BME280;47227;46.752;23.576;2022-10-22T00:36:52;96612.65;;;7.35;64.28
61357;BME280;47227;46.752;23.576;2022-10-22T00:39:21;96610.77;;;7.32;64.16
61357;BME280;47227;46.752;23.576;2022-10-22T00:41:51;96611.34;;;7.31;64.94
61357;BME280;47227;46.752;23.576;2022-10-22T00:47:17;96607.33;;;7.27;65.20
61357;BME280;47227;46.752;23.576;2022-10-22T00:49:44;96608.06;;;7.26;64.88
61357;BME280;47227;46.752;23.576;2022-10-22T00:52:12;96602.90;;;7.24;64.59
61357;BME280;47227;46.752;23.576;2022-10-22T00:54:40;96602.88;;;7.23;64.96
61357;BME280;47227;46.752;23.576;2022-10-22T00:57:08;96602.71;;;7.22;64.81
61357;BME280;47227;46.752;23.576;2022-10-22T00:59:36;96604.95;;;7.21;64.66
61357;BME280;47227;46.752;23.576;2022-10-22T01:02:03;96602.55;;;7.21;64.48
61357;BME280;47227;46.752;23.576;2022-10-22T01:04:29;96606.97;;;7.20;64.58
61357;BME280;47227;46.752;23.576;2022-10-22T01:06:58;96601.76;;;7.19;64.62
61357;BME280;47227;46.752;23.576;2022-10-22T01:09:39;96591.28;;;7.18;65.35
61357;BME280;47227;46.752;23.576;2022-10-22T01:12:33;96596.83;;;7.17;65.03
61357;BME280;47227;46.752;23.576;2022-10-22T01:15:13;96590.89;;;7.14;65.45
61357;BME280;47227;46.752;23.576;2022-10-22T01:20:46;96592.84;;;7.12;64.93
61357;BME280;47227;46.752;23.576;2022-10-22T01:23:33;96594.27;;;7.10;65.82
61357;BME280;47227;46.752;23.576;2022-10-22T01:29:08;96582.30;;;7.07;65.29
61357;BME280;47227;46.752;23.576;2022-10-22T01:31:39;96586.11;;;7.06;65.41
61357;BME280;47227;46.752;23.576;2022-10-22T01:34:13;96579.09;;;7.03;66.28
61357;BME280;47227;46.752;23.576;2022-10-22T01:36:43;96582.76;;;7.00;66.65
61357;BME280;47227;46.752;23.576;2022-10-22T01:39:12;96581.29;;;7.00;65.72
61357;BME280;47227;46.752;23.576;2022-10-22T01:41:43;96580.58;;;6.99;65.82
61357;BME280;47227;46.752;23.576;2022-10-22T01:44:28;96582.63;;;6.98;65.70
61357;BME280;47227;46.752;23.576;2022-10-22T01:47:13;96583.98;;;6.99;65.71
61357;BME280;47227;46.752;23.576;2022-10-22T01:52:50;96575.70;;;7.06;66.17
61357;BME280;47227;46.752;23.576;2022-10-22T01:55:27;96575.01;;;7.10;66.52
61357;BME280;47227;46.752;23.576;2022-10-22T01:58:07;96570.83;;;7.13;66.55
61357;BME280;47227;46.752;23.576;2022-10-22T02:00:45;96572.65;;;7.19;66.33
61357;BME280;47227;46.752;23.576;2022-10-22T02:03:19;96568.28;;;7.27;66.30
61357;BME280;47227;46.752;23.576;2022-10-22T02:05:54;96563.28;;;7.35;66.26
61357;BME280;47227;46.752;23.576;2022-10-22T02:08:26;96566.36;;;7.42;66.50
61357;BME280;47227;46.752;23.576;2022-10-22T02:10:55;96561.71;;;7.48;66.30
61357;BME280;47227;46.752;23.576;2022-10-22T02:13:27;96563.78;;;7.49;66.04
61357;BME280;47227;46.752;23.576;2022-10-22T02:16:06;96566.34;;;7.48;66.02
61357;BME280;47227;46.752;23.576;2022-10-22T02:18:35;96568.33;;;7.46;65.87
61357;BME280;47227;46.752;23.576;2022-10-22T02:21:06;96571.80;;;7.43;65.62
61357;BME280;47227;46.752;23.576;2022-10-22T02:23:33;96578.97;;;7.39;65.82
61357;BME280;47227;46.752;23.576;2022-10-22T02:26:04;96574.68;;;7.34;65.68
61357;BME280;47227;46.752;23.576;2022-10-22T02:28:38;96570.00;;;7.30;65.85
61357;BME280;47227;46.752;23.576;2022-10-22T02:31:14;96568.92;;;7.27;65.67
61357;BME280;47227;46.752;23.576;2022-10-22T02:33:46;96566.30;;;7.23;65.55
61357;BME280;47227;46.752;23.576;2022-10-22T02:36:15;96573.36;;;7.20;65.57
61357;BME280;47227;46.752;23.576;2022-10-22T02:38:45;96573.89;;;7.15;65.41
61357;BME280;47227;46.752;23.576;2022-10-22T02:41:14;96570.69;;;7.12;65.40
61357;BME280;47227;46.752;23.576;2022-10-22T02:43:42;96566.64;;;7.09;65.84
61357;BME280;47227;46.752;23.576;2022-10-22T02:46:10;96562.14;;;7.05;66.11
61357;BME280;47227;46.752;23.576;2022-10-22T02:48:37;96563.63;;;7.01;66.74
61357;BME280;47227;46.752;23.576;2022-10-22T02:51:03;96567.39;;;6.97;66.29
61357;BME280;47227;46.752;23.576;2022-10-22T02:53:32;96562.13;;;6.94;67.00
61357;BME280;47227;46.752;23.576;2022-10-22T02:55:59;96554.89;;;6.91;66.62
61357;BME280;47227;46.752;23.576;2022-10-22T02:58:26;96555.88;;;6.89;67.02
61357;BME280;47227;46.752;23.576;2022-10-22T03:00:53;96553.86;;;6.86;67.13
61357;BME280;47227;46.752;23.576;2022-10-22T03:03:20;96548.00;;;6.83;66.58
61357;BME280;47227;46.752;23.576;2022-10-22T03:05:46;96553.40;;;6.82;66.53
61357;BME280;47227;46.752;23.576;2022-10-22T03:08:13;96543.20;;;6.79;67.07
61357;BME280;47227;46.752;23.576;2022-10-22T03:10:40;96540.73;;;6.75;66.99
61357;BME280;47227;46.752;23.576;2022-10-22T03:13:06;96539.75;;;6.74;67.35
61357;BME280;47227;46.752;23.576;2022-10-22T03:15:33;96541.89;;;6.72;66.93
61357;BME280;47227;46.752;23.576;2022-10-22T03:17:59;96535.88;;;6.69;67.49
61357;BME280;47227;46.752;23.576;2022-10-22T03:20:26;96543.77;;;6.65;68.99
61357;BME280;47227;46.752;23.576;2022-10-22T03:22:54;96550.17;;;6.61;67.83
61357;BME280;47227;46.752;23.576;2022-10-22T03:25:23;96542.73;;;6.60;67.38
61357;BME280;47227;46.752;23.576;2022-10-22T03:27:53;96546.06;;;6.58;67.40
61357;BME280;47227;46.752;23.576;2022-10-22T03:30:21;96550.46;;;6.57;68.07
61357;BME280;47227;46.752;23.576;2022-10-22T03:32:47;96548.76;;;6.54;67.79
61357;BME280;47227;46.752;23.576;2022-10-22T03:35:14;96549.59;;;6.51;68.45
61357;BME280;47227;46.752;23.576;2022-10-22T03:37:41;96548.18;;;6.45;68.12
61357;BME280;47227;46.752;23.576;2022-10-22T03:40:09;96547.95;;;6.40;68.68
61357;BME280;47227;46.752;23.576;2022-10-22T03:42:37;96552.94;;;6.34;69.68
61357;BME280;47227;46.752;23.576;2022-10-22T03:45:04;96557.89;;;6.26;70.89
61357;BME280;47227;46.752;23.576;2022-10-22T03:47:31;96549.17;;;6.12;72.90
61357;BME280;47227;46.752;23.576;2022-10-22T03:49:57;96540.86;;;6.11;71.70
61357;BME280;47227;46.752;23.576;2022-10-22T03:52:24;96545.70;;;6.11;70.74
61357;BME280;47227;46.752;23.576;2022-10-22T03:54:51;96549.74;;;6.12;71.12
61357;BME280;47227;46.752;23.576;2022-10-22T03:57:17;96542.03;;;6.14;70.80
61357;BME280;47227;46.752;23.576;2022-10-22T03:59:45;96545.76;;;6.14;72.02
61357;BME280;47227;46.752;23.576;2022-10-22T04:02:13;96550.73;;;6.16;71.18
61357;BME280;47227;46.752;23.576;2022-10-22T04:04:40;96544.20;;;6.19;71.13
61357;BME280;47227;46.752;23.576;2022-10-22T04:07:07;96550.42;;;6.23;71.07
61357;BME280;47227;46.752;23.576;2022-10-22T04:09:34;96553.66;;;6.29;71.00
61357;BME280;47227;46.752;23.576;2022-10-22T04:12:01;96550.70;;;6.34;71.19
61357;BME280;47227;46.752;23.576;2022-10-22T04:14:31;96552.30;;;6.37;71.05
61357;BME280;47227;46.752;23.576;2022-10-22T04:16:58;96552.73;;;6.42;70.53
61357;BME280;47227;46.752;23.576;2022-10-22T04:19:24;96540.66;;;6.44;70.76
61357;BME280;47227;46.752;23.576;2022-10-22T04:21:51;96543.47;;;6.45;71.37
61357;BME280;47227;46.752;23.576;2022-10-22T04:24:17;96550.72;;;6.45;70.48
61357;BME280;47227;46.752;23.576;2022-10-22T04:26:44;96539.33;;;6.46;70.21
61357;BME280;47227;46.752;23.576;2022-10-22T04:29:11;96537.23;;;6.47;70.13
61357;BME280;47227;46.752;23.576;2022-10-22T04:31:42;96540.20;;;6.47;70.00
61357;BME280;47227;46.752;23.576;2022-10-22T04:34:09;96528.43;;;6.45;70.15
61357;BME280;47227;46.752;23.576;2022-10-22T04:36:37;96544.64;;;6.43;70.86
61357;BME280;47227;46.752;23.576;2022-10-22T04:39:04;96532.46;;;6.35;71.73
61357;BME280;47227;46.752;23.576;2022-10-22T04:41:34;96538.20;;;6.34;70.92
61357;BME280;47227;46.752;23.576;2022-10-22T04:44:02;96546.05;;;6.32;71.69
61357;BME280;47227;46.752;23.576;2022-10-22T04:46:31;96538.38;;;6.31;70.82
61357;BME280;47227;46.752;23.576;2022-10-22T04:48:58;96551.45;;;6.30;70.93
61357;BME280;47227;46.752;23.576;2022-10-22T04:51:26;96543.86;;;6.27;70.95
61357;BME280;47227;46.752;23.576;2022-10-22T04:53:53;96548.17;;;6.23;71.29
61357;BME280;47227;46.752;23.576;2022-10-22T04:56:22;96545.11;;;6.20;71.22
61357;BME280;47227;46.752;23.576;2022-10-22T04:58:53;96547.05;;;6.17;71.04
61357;BME280;47227;46.752;23.576;2022-10-22T05:01:23;96544.50;;;6.16;70.92
61357;BME280;47227;46.752;23.576;2022-10-22T05:03:52;96549.98;;;6.12;72.11
61357;BME280;47227;46.752;23.576;2022-10-22T05:06:20;96546.91;;;6.10;71.23
61357;BME280;47227;46.752;23.576;2022-10-22T05:08:47;96547.23;;;6.09;71.45
61357;BME280;47227;46.752;23.576;2022-10-22T05:11:20;96550.34;;;6.08;71.29
61357;BME280;47227;46.752;23.576;2022-10-22T05:13:48;96558.50;;;6.08;70.68
61357;BME280;47227;46.752;23.576;2022-10-22T05:16:15;96556.42;;;6.08;71.02
61357;BME280;47227;46.752;23.576;2022-10-22T05:18:43;96559.51;;;6.08;70.79
61357;BME280;47227;46.752;23.576;2022-10-22T05:21:13;96562.03;;;6.07;70.70
61357;BME280;47227;46.752;23.576;2022-10-22T05:23:40;96557.20;;;6.07;70.56
61357;BME280;47227;46.752;23.576;2022-10-22T05:26:09;96559.55;;;6.08;70.38
61357;BME280;47227;46.752;23.576;2022-10-22T05:28:37;96559.88;;;6.08;70.10
61357;BME280;47227;46.752;23.576;2022-10-22T05:31:06;96561.31;;;6.07;70.56
61357;BME280;47227;46.752;23.576;2022-10-22T05:33:34;96565.01;;;6.07;70.29
61357;BME280;47227;46.752;23.576;2022-10-22T05:36:03;96568.56;;;6.09;70.46
61357;BME280;47227;46.752;23.576;2022-10-22T05:38:31;96566.86;;;6.11;70.40
61357;BME280;47227;46.752;23.576;2022-10-22T05:41:00;96568.17;;;6.17;70.48
61357;BME280;47227;46.752;23.576;2022-10-22T05:43:28;96576.08;;;6.22;70.47
61357;BME280;47227;46.752;23.576;2022-10-22T05:45:55;96584.84;;;6.29;70.25
61357;BME280;47227;46.752;23.576;2022-10-22T05:48:22;96581.95;;;6.35;70.67
61357;BME280;47227;46.752;23.576;2022-10-22T05:50:49;96582.01;;;6.42;70.39
61357;BME280;47227;46.752;23.576;2022-10-22T05:53:17;96580.86;;;6.51;70.29
61357;BME280;47227;46.752;23.576;2022-10-22T05:55:44;96588.73;;;6.59;70.54
61357;BME280;47227;46.752;23.576;2022-10-22T05:58:12;96587.98;;;6.67;70.44
61357;BME280;47227;46.752;23.576;2022-10-22T06:00:39;96588.92;;;6.72;70.24
61357;BME280;47227;46.752;23.576;2022-10-22T06:03:06;96586.70;;;6.79;70.03
61357;BME280;47227;46.752;23.576;2022-10-22T06:05:34;96586.32;;;6.82;69.80
61357;BME280;47227;46.752;23.576;2022-10-22T06:08:02;96587.83;;;6.87;69.80
61357;BME280;47227;46.752;23.576;2022-10-22T06:10:29;96591.02;;;6.90;69.64
61357;BME280;47227;46.752;23.576;2022-10-22T06:12:57;96591.42;;;6.93;69.32
61357;BME280;47227;46.752;23.576;2022-10-22T06:15:23;96592.59;;;6.97;69.35
61357;BME280;47227;46.752;23.576;2022-10-22T06:17:50;96594.19;;;7.01;68.95
61357;BME280;47227;46.752;23.576;2022-10-22T06:20:17;96598.18;;;7.03;69.14
61357;BME280;47227;46.752;23.576;2022-10-22T06:22:43;96598.39;;;7.07;68.70
61357;BME280;47227;46.752;23.576;2022-10-22T06:25:10;96594.88;;;7.08;68.58
61357;BME280;47227;46.752;23.576;2022-10-22T06:27:37;96592.05;;;7.07;68.29
61357;BME280;47227;46.752;23.576;2022-10-22T06:30:05;96587.67;;;7.11;68.40
61357;BME280;47227;46.752;23.576;2022-10-22T06:32:32;96581.64;;;7.16;68.20
61357;BME280;47227;46.752;23.576;2022-10-22T06:34:58;96572.95;;;7.21;68.21
61357;BME280;47227;46.752;23.576;2022-10-22T06:37:25;96572.63;;;7.25;68.17
61357;BME280;47227;46.752;23.576;2022-10-22T06:39:52;96570.05;;;7.30;68.18
61357;BME280;47227;46.752;23.576;2022-10-22T06:42:19;96568.30;;;7.35;67.75
61357;BME280;47227;46.752;23.576;2022-10-22T06:44:47;96563.44;;;7.39;67.50
61357;BME280;47227;46.752;23.576;2022-10-22T06:47:13;96563.34;;;7.43;67.51
61357;BME280;47227;46.752;23.576;2022-10-22T06:49:40;96560.14;;;7.46;67.52
61357;BME280;47227;46.752;23.576;2022-10-22T06:52:07;96557.93;;;7.49;67.42
61357;BME280;47227;46.752;23.576;2022-10-22T06:54:34;96560.38;;;7.55;67.17
61357;BME280;47227;46.752;23.576;2022-10-22T06:57:01;96565.30;;;7.57;66.82
61357;BME280;47227;46.752;23.576;2022-10-22T06:59:27;96566.65;;;7.61;66.97
61357;BME280;47227;46.752;23.576;2022-10-22T07:01:54;96569.11;;;7.69;66.93
61357;BME280;47227;46.752;23.576;2022-10-22T07:04:21;96573.91;;;7.77;66.92
61357;BME280;47227;46.752;23.576;2022-10-22T07:06:48;96580.83;;;7.82;66.74
61357;BME280;47227;46.752;23.576;2022-10-22T07:09:14;96575.65;;;7.88;66.75
61357;BME280;47227;46.752;23.576;2022-10-22T07:11:43;96571.95;;;7.97;66.62
61357;BME280;47227;46.752;23.576;2022-10-22T07:14:12;96575.79;;;8.04;66.17
61357;BME280;47227;46.752;23.576;2022-10-22T07:16:39;96576.46;;;8.05;65.87
61357;BME280;47227;46.752;23.576;2022-10-22T07:19:16;96580.52;;;8.10;65.84
61357;BME280;47227;46.752;23.576;2022-10-22T07:21:43;96583.05;;;8.18;65.78
61357;BME280;47227;46.752;23.576;2022-10-22T07:24:10;96578.96;;;8.26;65.85
61357;BME280;47227;46.752;23.576;2022-10-22T07:26:37;96575.23;;;8.33;65.41
61357;BME280;47227;46.752;23.576;2022-10-22T07:29:04;96579.43;;;8.35;65.10
61357;BME280;47227;46.752;23.576;2022-10-22T07:31:31;96582.02;;;8.34;64.91
61357;BME280;47227;46.752;23.576;2022-10-22T07:33:58;96584.15;;;8.40;65.25
61357;BME280;47227;46.752;23.576;2022-10-22T07:36:25;96579.34;;;8.42;65.29
61357;BME280;47227;46.752;23.576;2022-10-22T07:38:55;96579.12;;;8.46;64.91
61357;BME280;47227;46.752;23.576;2022-10-22T07:41:22;96581.09;;;8.58;65.09
61357;BME280;47227;46.752;23.576;2022-10-22T07:43:51;96580.38;;;8.73;65.09
61357;BME280;47227;46.752;23.576;2022-10-22T07:46:18;96574.40;;;8.87;65.07
61357;BME280;47227;46.752;23.576;2022-10-22T07:48:46;96574.73;;;9.00;64.81
61357;BME280;47227;46.752;23.576;2022-10-22T07:51:13;96572.68;;;9.09;63.77
61357;BME280;47227;46.752;23.576;2022-10-22T07:53:40;96573.79;;;9.13;63.16
61357;BME280;47227;46.752;23.576;2022-10-22T07:56:07;96577.53;;;9.19;63.00
61357;BME280;47227;46.752;23.576;2022-10-22T07:58:34;96578.17;;;9.30;62.82
61357;BME280;47227;46.752;23.576;2022-10-22T08:01:02;96578.41;;;9.32;62.08
61357;BME280;47227;46.752;23.576;2022-10-22T08:03:31;96580.77;;;9.29;61.83
61357;BME280;47227;46.752;23.576;2022-10-22T08:05:59;96579.52;;;9.37;62.17
61357;BME280;47227;46.752;23.576;2022-10-22T08:08:26;96577.56;;;9.54;62.16
61357;BME280;47227;46.752;23.576;2022-10-22T08:10:59;96582.27;;;9.74;62.21
61357;BME280;47227;46.752;23.576;2022-10-22T08:13:26;96583.30;;;9.94;61.70
61357;BME280;47227;46.752;23.576;2022-10-22T08:15:57;96584.60;;;10.10;61.05
61357;BME280;47227;46.752;23.576;2022-10-22T08:18:24;96588.99;;;10.25;60.70
61357;BME280;47227;46.752;23.576;2022-10-22T08:20:52;96590.68;;;10.47;61.77
61357;BME280;47227;46.752;23.576;2022-10-22T08:23:19;96590.48;;;10.68;60.41
61357;BME280;47227;46.752;23.576;2022-10-22T08:25:53;96594.25;;;10.86;59.04
61357;BME280;47227;46.752;23.576;2022-10-22T08:28:20;96592.83;;;10.96;58.33
61357;BME280;47227;46.752;23.576;2022-10-22T08:30:48;96584.81;;;11.06;58.32
61357;BME280;47227;46.752;23.576;2022-10-22T08:33:15;96592.74;;;11.17;58.34
61357;BME280;47227;46.752;23.576;2022-10-22T08:35:48;96591.17;;;11.21;57.95
61357;BME280;47227;46.752;23.576;2022-10-22T08:38:14;96584.70;;;11.32;58.06
61357;BME280;47227;46.752;23.576;2022-10-22T08:40:43;96595.31;;;11.50;58.92
61357;BME280;47227;46.752;23.576;2022-10-22T08:46:33;96596.48;;;11.79;57.63
61357;BME280;47227;46.752;23.576;2022-10-22T08:49:04;96599.16;;;11.87;57.23
61357;BME280;47227;46.752;23.576;2022-10-22T08:51:36;96606.36;;;12.06;57.35
61357;BME280;47227;46.752;23.576;2022-10-22T08:54:24;96604.16;;;12.30;58.16
61357;BME280;47227;46.752;23.576;2022-10-22T09:00:05;96604.18;;;12.65;56.18
61357;BME280;47227;46.752;23.576;2022-10-22T09:05:55;96613.98;;;12.82;55.62
61357;BME280;47227;46.752;23.576;2022-10-22T09:08:21;96618.35;;;12.95;56.31
61357;BME280;47227;46.752;23.576;2022-10-22T09:10:53;96619.91;;;13.18;56.60
61357;BME280;47227;46.752;23.576;2022-10-22T09:13:22;96619.92;;;13.34;56.47
61357;BME280;47227;46.752;23.576;2022-10-22T09:15:54;96617.11;;;13.42;56.19
61357;BME280;47227;46.752;23.576;2022-10-22T09:24:27;96614.05;;;13.30;54.43
61357;BME280;47227;46.752;23.576;2022-10-22T09:27:01;96619.92;;;13.34;55.27
61357;BME280;47227;46.752;23.576;2022-10-22T09:29:36;96620.23;;;13.46;55.76
61357;BME280;47227;46.752;23.576;2022-10-22T09:32:04;96610.74;;;13.47;54.76
61357;BME280;47227;46.752;23.576;2022-10-22T09:34:31;96611.86;;;13.46;54.60
61357;BME280;47227;46.752;23.576;2022-10-22T09:37:16;96623.48;;;13.51;54.53
61357;BME280;47227;46.752;23.576;2022-10-22T09:39:46;96613.70;;;13.70;54.84
61357;BME280;47227;46.752;23.576;2022-10-22T09:42:15;96605.12;;;13.76;54.26
61357;BME280;47227;46.752;23.576;2022-10-22T09:44:42;96611.86;;;13.73;53.81
61357;BME280;47227;46.752;23.576;2022-10-22T09:47:34;96610.09;;;13.78;53.90
61357;BME280;47227;46.752;23.576;2022-10-22T09:50:38;96602.48;;;13.96;53.66
61357;BME280;47227;46.752;23.576;2022-10-22T09:53:25;96608.48;;;14.18;53.32
61357;BME280;47227;46.752;23.576;2022-10-22T09:55:57;96605.63;;;14.52;52.89
61357;BME280;47227;46.752;23.576;2022-10-22T09:58:25;96602.69;;;14.79;52.44
61357;BME280;47227;46.752;23.576;2022-10-22T10:00:55;96604.33;;;15.08;51.43
61357;BME280;47227;46.752;23.576;2022-10-22T10:03:26;96607.52;;;15.26;50.81
61357;BME280;47227;46.752;23.576;2022-10-22T10:05:57;96606.98;;;15.59;51.29
61357;BME280;47227;46.752;23.576;2022-10-22T10:08:33;96606.43;;;15.92;49.84
61357;BME280;47227;46.752;23.576;2022-10-22T10:11:32;96598.90;;;16.06;49.03
61357;BME280;47227;46.752;23.576;2022-10-22T10:14:11;96598.50;;;16.17;48.54
61357;BME280;47227;46.752;23.576;2022-10-22T10:16:51;96597.88;;;16.16;48.29
61357;BME280;47227;46.752;23.576;2022-10-22T10:19:45;96598.82;;;16.33;48.37
61357;BME280;47227;46.752;23.576;2022-10-22T10:25:26;96592.86;;;16.15;48.23
61357;BME280;47227;46.752;23.576;2022-10-22T10:28:08;96599.17;;;16.50;49.06
61357;BME280;47227;46.752;23.576;2022-10-22T10:30:48;96595.05;;;16.94;48.41
61357;BME280;47227;46.752;23.576;2022-10-22T10:33:32;96590.66;;;17.16;46.07
61357;BME280;47227;46.752;23.576;2022-10-22T10:36:11;96589.83;;;17.57;45.66
61357;BME280;47227;46.752;23.576;2022-10-22T10:38:57;96596.38;;;17.82;45.00
61357;BME280;47227;46.752;23.576;2022-10-22T10:41:42;96597.86;;;17.46;45.35
61357;BME280;47227;46.752;23.576;2022-10-22T10:44:34;96596.84;;;17.61;45.20
61357;BME280;47227;46.752;23.576;2022-10-22T10:47:24;96595.73;;;17.91;44.46
61357;BME280;47227;46.752;23.576;2022-10-22T10:53:02;96593.20;;;18.24;43.73
61357;BME280;47227;46.752;23.576;2022-10-22T10:55:44;96594.59;;;18.66;42.89
61357;BME280;47227;46.752;23.576;2022-10-22T10:58:33;96595.83;;;18.95;42.01
61357;BME280;47227;46.752;23.576;2022-10-22T11:01:17;96589.70;;;19.16;41.83
61357;BME280;47227;46.752;23.576;2022-10-22T11:06:36;96580.34;;;19.76;41.05
61357;BME280;47227;46.752;23.576;2022-10-22T11:09:13;96576.67;;;20.15;40.69
61357;BME280;47227;46.752;23.576;2022-10-22T11:11:47;96573.82;;;20.59;40.11
61357;BME280;47227;46.752;23.576;2022-10-22T11:14:20;96575.09;;;20.75;39.25
61357;BME280;47227;46.752;23.576;2022-10-22T11:17:02;96572.98;;;20.97;39.11
61357;BME280;47227;46.752;23.576;2022-10-22T11:19:37;96573.88;;;21.36;38.84
61357;BME280;47227;46.752;23.576;2022-10-22T11:22:29;96570.30;;;21.63;37.94
61357;BME280;47227;46.752;23.576;2022-10-22T11:25:12;96567.39;;;21.43;37.07
61357;BME280;47227;46.752;23.576;2022-10-22T11:27:52;96565.84;;;21.26;37.77
61357;BME280;47227;46.752;23.576;2022-10-22T11:30:22;96565.55;;;21.31;37.63
61357;BME280;47227;46.752;23.576;2022-10-22T11:32:53;96556.67;;;21.31;37.30
61357;BME280;47227;46.752;23.576;2022-10-22T11:35:26;96553.45;;;21.17;37.10
61357;BME280;47227;46.752;23.576;2022-10-22T11:37:56;96556.87;;;21.17;37.34
61357;BME280;47227;46.752;23.576;2022-10-22T11:40:45;96560.66;;;21.39;37.36
61357;BME280;47227;46.752;23.576;2022-10-22T11:43:30;96559.88;;;21.50;36.73
61357;BME280;47227;46.752;23.576;2022-10-22T11:49:18;96553.89;;;21.82;36.31
61357;BME280;47227;46.752;23.576;2022-10-22T11:51:47;96542.83;;;21.87;36.13
61357;BME280;47227;46.752;23.576;2022-10-22T11:54:37;96540.02;;;22.17;35.94
61357;BME280;47227;46.752;23.576;2022-10-22T11:57:18;96547.56;;;22.56;35.36
61357;BME280;47227;46.752;23.576;2022-10-22T11:59:51;96546.27;;;23.06;34.48
61357;BME280;47227;46.752;23.576;2022-10-22T12:02:41;96544.69;;;22.77;34.25
61357;BME280;47227;46.752;23.576;2022-10-22T12:05:29;96549.94;;;22.21;35.25
61357;BME280;47227;46.752;23.576;2022-10-22T12:08:02;96546.79;;;21.82;35.79
61357;BME280;47227;46.752;23.576;2022-10-22T12:10:36;96548.11;;;21.76;36.07
61357;BME280;47227;46.752;23.576;2022-10-22T12:13:22;96546.35;;;21.89;35.98
61357;BME280;47227;46.752;23.576;2022-10-22T12:15:53;96546.09;;;22.01;36.52
61357;BME280;47227;46.752;23.576;2022-10-22T12:18:24;96545.89;;;22.05;36.71
61357;BME280;47227;46.752;23.576;2022-10-22T12:20:53;96544.45;;;21.96;36.85
61357;BME280;47227;46.752;23.576;2022-10-22T12:23:25;96540.92;;;21.46;36.62
61357;BME280;47227;46.752;23.576;2022-10-22T12:25:54;96536.29;;;21.09;37.41
61357;BME280;47227;46.752;23.576;2022-10-22T12:28:21;96538.66;;;21.00;38.06
61357;BME280;47227;46.752;23.576;2022-10-22T12:30:48;96543.90;;;20.79;38.32
61357;BME280;47227;46.752;23.576;2022-10-22T12:33:22;96544.80;;;20.48;38.92
61357;BME280;47227;46.752;23.576;2022-10-22T12:35:49;96538.63;;;20.28;39.67
61357;BME280;47227;46.752;23.576;2022-10-22T12:38:21;96539.33;;;20.18;40.13
61357;BME280;47227;46.752;23.576;2022-10-22T12:40:50;96538.95;;;20.05;40.58
61357;BME280;47227;46.752;23.576;2022-10-22T12:43:25;96533.10;;;19.95;41.00
61357;BME280;47227;46.752;23.576;2022-10-22T12:45:55;96532.09;;;19.59;41.62
61357;BME280;47227;46.752;23.576;2022-10-22T12:48:29;96531.65;;;19.23;42.04
61357;BME280;47227;46.752;23.576;2022-10-22T12:50:59;96530.02;;;19.06;42.32
61357;BME280;47227;46.752;23.576;2022-10-22T12:53:32;96525.92;;;18.81;42.92
61357;BME280;47227;46.752;23.576;2022-10-22T12:56:04;96523.65;;;18.65;43.48
61357;BME280;47227;46.752;23.576;2022-10-22T12:58:37;96526.02;;;18.61;43.81
61357;BME280;47227;46.752;23.576;2022-10-22T13:01:05;96525.84;;;18.59;43.84
61357;BME280;47227;46.752;23.576;2022-10-22T13:03:35;96521.75;;;18.59;43.83
61357;BME280;47227;46.752;23.576;2022-10-22T13:06:13;96512.95;;;18.57;43.93
61357;BME280;47227;46.752;23.576;2022-10-22T13:08:40;96503.80;;;18.46;44.30
61357;BME280;47227;46.752;23.576;2022-10-22T13:11:09;96499.38;;;18.40;44.35
61357;BME280;47227;46.752;23.576;2022-10-22T13:13:41;96497.17;;;18.35;44.62
61357;BME280;47227;46.752;23.576;2022-10-22T13:16:18;96496.89;;;18.24;45.37
61357;BME280;47227;46.752;23.576;2022-10-22T13:18:47;96499.67;;;18.13;45.44
61357;BME280;47227;46.752;23.576;2022-10-22T13:21:32;96503.94;;;18.05;45.37
61357;BME280;47227;46.752;23.576;2022-10-22T13:24:01;96510.14;;;17.91;46.08
61357;BME280;47227;46.752;23.576;2022-10-22T13:26:32;96506.85;;;17.78;46.41
61357;BME280;47227;46.752;23.576;2022-10-22T13:29:00;96500.61;;;17.69;46.43
61357;BME280;47227;46.752;23.576;2022-10-22T13:31:30;96499.56;;;17.56;47.09
61357;BME280;47227;46.752;23.576;2022-10-22T13:34:02;96500.00;;;17.46;47.18
61357;BME280;47227;46.752;23.576;2022-10-22T13:36:36;96490.52;;;17.39;47.15
61357;BME280;47227;46.752;23.576;2022-10-22T13:39:05;96481.40;;;17.29;47.48
61357;BME280;47227;46.752;23.576;2022-10-22T13:41:37;96482.27;;;17.23;47.42
61357;BME280;47227;46.752;23.576;2022-10-22T13:44:03;96477.16;;;17.16;47.67
61357;BME280;47227;46.752;23.576;2022-10-22T13:46:30;96480.09;;;17.11;48.28
61357;BME280;47227;46.752;23.576;2022-10-22T13:48:57;96481.33;;;17.05;48.82
61357;BME280;47227;46.752;23.576;2022-10-22T13:51:32;96479.73;;;17.00;48.66
61357;BME280;47227;46.752;23.576;2022-10-22T13:54:00;96473.65;;;16.95;48.79
61357;BME280;47227;46.752;23.576;2022-10-22T13:56:28;96468.57;;;16.90;49.40